Corpus Christi, TX

7:31 PM CDT on August 02, 2015 (GMT -0500)
Corpus Christi International | | Change Station
CLOSE
Current Station
Airport
Location: Corpus Christi,
Elevation: 43 ft
Nearby Weather Stations

Elev 43 ft 27.77 °N, 97.51 °W | Updated 40 minutes ago

Partly Cloudy
Partly Cloudy
90 °F
Feels Like 96 °F
N
14
Wind Variable Wind from SE

Today
High -- | Low -- °F
--% Chance of Precip.
Yesterday
High -- | Low -- °F
Precip. -- in
6:53 AM 8:18 PM
Waning Gibbous, 91% visible
Pressure 29.84 in
Visibility 10.0 miles
Clouds Few 4000 ft
Few 15000 ft
Few 25000 ft
Heat Index 96 °F
Dew Point 71 °F
Humidity 54%
Rainfall 0.00 in
Snow Depth Not available.
UV 1 out of 12
Pollen 3.90 out of 12
Air Quality Not available.
Flu Activity Not available.
METAR KCRP 022351Z COR 13012KT 10SM FEW040 FEW150 FEW250 32/22 A2984 RMK AO2 SLP104 T03220217 10356 20322 58008

More Conditions Fewer Conditions

Pressure 29.84 in
Visibility 10.0 miles
Clouds Few 4000 ft
Few 15000 ft
Few 25000 ft
Heat Index 96 °F
Dew Point 71 °F
Humidity 54%
Rainfall 0.00 in
Snow Depth Not available.
UV 1 out of 12
Pollen 3.90 out of 12
Air Quality Not available.
Flu Activity Not available.
METAR KCRP 022351Z COR 13012KT 10SM FEW040 FEW150 FEW250 32/22 A2984 RMK AO2 SLP104 T03220217 10356 20322 58008

More Conditions Fewer Conditions

10-Day Weather Forecast

×

Almanac

Astronomy

Aug. 02, 2015 Rise Set
Actual Time
Civil Twilight
Nautical Twilight
Astronomical Twilight
Moon
Length of Visible Light
Length of Day
Tomorrow will be .
, % of the Moon is Illuminated

Today's Extremes

State Highs State Lows

Community

WunderPhotos

Upload Photos

1,843,455 photos uploaded!

WunderBlogs® & News

Nearby

Air Quality

  Air Quality AQ Index Pollutant
Not available.

Snow Depth

Station Depth Elevation

Earthquake Activity

City Distance Mag. Time & Date
Minimum magnitude displayed is 2.5.

Coastal Water Temperatures

Place Temperature

Stations

Nearby Weather Stations

Station Location Temp. Windchill Dew Point Humidity Wind Precip. Elev Updated Type